createdAt,value
2023-01-15T00:00:10.636Z,18.50
2023-01-15T00:01:37.349Z,20.35
2023-01-15T00:02:40.475Z,17.48
2023-01-15T00:03:43.602Z,17.52
2023-01-15T00:04:46.592Z,22.40
2023-01-15T00:05:49.580Z,18.48
2023-01-15T00:06:54.883Z,20.33
2023-01-15T00:07:58.237Z,17.95
2023-01-15T00:09:02.479Z,19.75
2023-01-15T00:10:05.914Z,22.00
2023-01-15T00:11:10.797Z,20.58
2023-01-15T00:12:13.806Z,22.62
2023-01-15T00:13:16.746Z,22.90
2023-01-15T00:14:19.802Z,22.52
2023-01-15T00:15:22.931Z,22.37
2023-01-15T00:16:30.741Z,24.58
2023-01-15T00:17:33.900Z,22.40
2023-01-15T00:18:37.643Z,22.77
2023-01-15T00:19:40.663Z,24.40
2023-01-15T00:20:43.574Z,21.92
2023-01-15T00:21:46.632Z,21.40
2023-01-15T00:22:49.435Z,21.58
2023-01-15T00:24:11.335Z,17.20
2023-01-15T00:25:33.165Z,21.12
2023-01-15T00:28:01.676Z,24.17
2023-01-15T00:29:06.290Z,22.52
2023-01-15T00:30:16.280Z,22.90
2023-01-15T00:31:19.440Z,22.27
2023-01-15T00:32:22.375Z,20.23
2023-01-15T00:33:25.597Z,19.60
2023-01-15T00:34:28.675Z,24.75
2023-01-15T00:35:31.733Z,22.02
2023-01-15T00:36:35.050Z,20.85
2023-01-15T00:37:38.263Z,24.25
2023-01-15T00:38:45.544Z,20.40
2023-01-15T00:39:49.119Z,20.67
2023-01-15T00:40:53.282Z,26.45
2023-01-15T00:41:56.646Z,19.27
2023-01-15T00:42:59.532Z,26.70
2023-01-15T00:44:02.409Z,22.23
2023-01-15T00:45:13.114Z,22.58
2023-01-15T00:46:16.501Z,21.10
2023-01-15T00:47:19.931Z,19.67
2023-01-15T00:48:24.462Z,19.52
2023-01-15T00:49:28.794Z,20.00
2023-01-15T00:50:31.831Z,26.17
2023-01-15T00:51:35.161Z,21.30
2023-01-15T00:52:38.136Z,20.45
2023-01-15T00:53:44.542Z,22.23
2023-01-15T00:54:48.582Z,19.25
2023-01-15T00:55:51.384Z,22.02
2023-01-15T00:56:54.532Z,21.83
2023-01-15T00:57:57.376Z,19.87
2023-01-15T00:59:04.256Z,19.73
2023-01-15T01:00:07.891Z,25.85
2023-01-15T01:01:11.977Z,21.23
2023-01-15T01:02:15.186Z,20.42
2023-01-15T01:03:18.315Z,18.45
2023-01-15T01:04:21.381Z,23.83
2023-01-15T01:05:24.256Z,21.40
2023-01-15T01:06:28.284Z,21.00
2023-01-15T01:07:31.903Z,22.42
2023-01-15T01:08:35.501Z,20.50
2023-01-15T01:09:38.388Z,19.98
2023-01-15T01:10:41.311Z,20.60
2023-01-15T01:11:44.319Z,20.25
2023-01-15T01:12:48.921Z,19.23
2023-01-15T01:13:51.898Z,21.20
2023-01-15T01:14:54.819Z,21.25
2023-01-15T01:15:57.771Z,17.67
2023-01-15T01:17:00.673Z,16.80
2023-01-15T01:18:05.284Z,19.10
2023-01-15T01:19:17.668Z,16.05
2023-01-15T01:20:20.940Z,17.90
2023-01-15T01:21:24.184Z,19.80
2023-01-15T01:22:27.098Z,17.25
2023-01-15T01:23:29.909Z,17.50
2023-01-15T01:24:32.909Z,18.75
2023-01-15T01:25:36.524Z,17.25
2023-01-15T01:26:39.820Z,20.17
2023-01-15T01:27:45.383Z,16.65
2023-01-15T01:28:53.656Z,16.50
2023-01-15T01:29:56.588Z,19.17
2023-01-15T01:31:03.454Z,20.90
2023-01-15T01:32:06.488Z,20.17
2023-01-15T01:33:09.430Z,19.17
2023-01-15T01:34:13.277Z,23.60
2023-01-15T01:35:16.305Z,20.65
2023-01-15T01:36:20.370Z,20.50
2023-01-15T01:37:23.355Z,19.92
2023-01-15T01:38:27.397Z,20.25
2023-01-15T01:39:31.552Z,18.80
2023-01-15T01:40:34.626Z,17.52
2023-01-15T01:41:37.635Z,17.65
2023-01-15T01:42:40.646Z,18.60
2023-01-15T01:44:31.294Z,22.35
2023-01-15T01:45:34.381Z,18.00
2023-01-15T01:46:37.693Z,18.70
2023-01-15T01:47:41.492Z,21.70
2023-01-15T01:48:46.013Z,21.70
2023-01-15T01:49:57.833Z,17.37
2023-01-15T01:51:03.264Z,19.65
2023-01-15T01:52:16.536Z,17.75
2023-01-15T01:53:24.520Z,20.27
2023-01-15T01:54:29.693Z,21.33
2023-01-15T01:55:34.854Z,19.02
2023-01-15T01:56:37.971Z,17.48
2023-01-15T01:57:42.652Z,18.73
2023-01-15T01:58:51.878Z,21.48
2023-01-15T01:59:57.456Z,17.40
2023-01-15T02:01:03.614Z,23.35
2023-01-15T02:02:07.221Z,18.92
2023-01-15T02:03:10.845Z,18.37
2023-01-15T02:04:14.254Z,18.30
2023-01-15T02:05:43.179Z,18.65
2023-01-15T02:06:46.128Z,18.50
2023-01-15T02:07:49.017Z,19.25
2023-01-15T02:08:53.374Z,19.65
2023-01-15T02:09:56.644Z,19.12
2023-01-15T02:10:59.624Z,18.95
2023-01-15T02:12:28.669Z,17.98
2023-01-15T02:14:03.542Z,20.77
2023-01-15T02:15:43.676Z,19.55
2023-01-15T02:16:49.463Z,18.95
2023-01-15T02:18:04.939Z,18.87
2023-01-15T02:19:23.012Z,21.60
2023-01-15T02:20:37.264Z,21.87
2023-01-15T02:22:01.871Z,19.80
2023-01-15T02:23:16.806Z,20.17
2023-01-15T02:25:00.979Z,23.42
2023-01-15T02:26:22.194Z,22.73
2023-01-15T02:27:25.964Z,20.62
2023-01-15T02:28:38.913Z,20.62
2023-01-15T02:30:04.712Z,21.05
2023-01-15T02:31:16.794Z,17.70
2023-01-15T02:32:28.998Z,18.25
2023-01-15T02:33:39.640Z,19.33
2023-01-15T02:34:54.146Z,21.77
2023-01-15T02:36:01.295Z,21.17
2023-01-15T02:37:09.687Z,19.48
2023-01-15T02:38:20.643Z,27.35
2023-01-15T02:39:29.363Z,21.65
2023-01-15T02:40:35.467Z,27.42
2023-01-15T02:41:52.619Z,22.55
2023-01-15T02:42:57.922Z,21.08
2023-01-15T02:44:03.855Z,22.90
2023-01-15T02:45:09.542Z,20.88
2023-01-15T02:46:15.470Z,21.33
2023-01-15T02:47:24.572Z,19.73
2023-01-15T02:48:33.142Z,19.45
2023-01-15T02:49:38.109Z,19.73
2023-01-15T02:50:46.014Z,19.05
2023-01-15T02:52:33.029Z,20.67
2023-01-15T02:53:39.054Z,20.23
2023-01-15T02:54:49.833Z,16.58
2023-01-15T02:55:56.582Z,19.30
2023-01-15T02:57:02.526Z,21.42
2023-01-15T02:58:11.203Z,19.00
2023-01-15T02:59:23.252Z,18.58
2023-01-15T03:00:30.279Z,16.73
2023-01-15T03:01:41.695Z,19.15
2023-01-15T03:02:58.334Z,17.98
2023-01-15T03:04:19.419Z,31.77
2023-01-15T03:05:36.053Z,60.55
2023-01-15T03:06:51.631Z,75.03
2023-01-15T03:08:00.800Z,23.50
2023-01-15T03:09:05.062Z,67.35
2023-01-15T03:10:08.945Z,114.55
2023-01-15T03:11:15.178Z,68.78
2023-01-15T03:13:03.426Z,51.75
2023-01-15T03:14:16.103Z,67.60
2023-01-15T03:15:43.749Z,105.20
2023-01-15T03:16:53.130Z,61.70
2023-01-15T03:17:56.431Z,78.00
2023-01-15T03:19:08.534Z,48.87
2023-01-15T03:20:23.452Z,47.55
2023-01-15T03:22:05.082Z,56.85
2023-01-15T03:23:12.064Z,70.40
2023-01-15T03:24:29.625Z,42.65
2023-01-15T03:25:38.827Z,36.90
2023-01-15T03:26:41.815Z,20.30
2023-01-15T03:27:44.832Z,18.83
2023-01-15T03:28:49.965Z,21.12
2023-01-15T03:29:59.457Z,20.77
2023-01-15T03:31:03.194Z,18.40
2023-01-15T03:32:06.583Z,18.05
2023-01-15T03:33:11.912Z,19.42
2023-01-15T03:34:14.960Z,17.27
2023-01-15T03:35:53.664Z,17.37
2023-01-15T03:36:56.582Z,17.45
2023-01-15T03:37:59.659Z,19.83
2023-01-15T03:39:06.909Z,18.35
2023-01-15T03:40:10.735Z,19.10
2023-01-15T03:41:50.400Z,17.40
2023-01-15T03:43:20.657Z,18.65
2023-01-15T03:44:35.743Z,17.42
2023-01-15T03:45:42.672Z,16.77
2023-01-15T03:47:16.024Z,15.48
2023-01-15T03:48:35.507Z,19.15
2023-01-15T03:49:56.137Z,17.42
2023-01-15T03:51:08.177Z,15.82
2023-01-15T03:52:30.104Z,18.35
2023-01-15T03:54:03.237Z,18.27
2023-01-15T03:55:25.735Z,18.67
2023-01-15T03:56:43.420Z,15.32
2023-01-15T03:57:57.149Z,21.45
2023-01-15T03:59:10.454Z,17.00
2023-01-15T04:00:32.894Z,24.98
2023-01-15T04:01:41.546Z,23.35
2023-01-15T04:02:46.249Z,20.33
2023-01-15T04:03:51.029Z,21.48
2023-01-15T04:04:55.079Z,21.45
2023-01-15T04:06:01.094Z,21.23
2023-01-15T04:07:04.355Z,19.75
2023-01-15T04:08:09.882Z,23.50
2023-01-15T04:09:17.546Z,18.80
2023-01-15T04:10:20.623Z,18.77
2023-01-15T04:11:27.012Z,21.98
2023-01-15T04:12:32.924Z,18.67
2023-01-15T04:13:36.025Z,19.10
2023-01-15T04:14:39.176Z,23.27
2023-01-15T04:15:42.004Z,19.33
2023-01-15T04:16:45.084Z,17.95
2023-01-15T04:17:48.148Z,18.17
2023-01-15T04:18:51.257Z,23.12
2023-01-15T04:19:54.346Z,15.57
2023-01-15T04:20:57.906Z,21.15
2023-01-15T04:22:01.138Z,18.25
2023-01-15T04:23:03.982Z,18.20
2023-01-15T04:24:07.474Z,19.45
2023-01-15T04:25:11.015Z,19.33
2023-01-15T04:26:15.296Z,20.15
2023-01-15T04:27:18.468Z,16.45
2023-01-15T04:28:25.180Z,20.00
2023-01-15T04:29:28.980Z,17.37
2023-01-15T04:30:32.181Z,18.67
2023-01-15T04:31:36.473Z,17.23
2023-01-15T04:32:39.424Z,16.77
2023-01-15T04:33:42.540Z,17.23
2023-01-15T04:34:45.616Z,17.35
2023-01-15T04:35:48.496Z,20.98
2023-01-15T04:36:51.386Z,19.92
2023-01-15T04:37:58.785Z,21.60
2023-01-15T04:39:03.541Z,19.60
2023-01-15T04:40:07.383Z,20.90
2023-01-15T04:41:29.197Z,19.87
2023-01-15T04:42:50.942Z,18.10
2023-01-15T04:44:08.984Z,18.02
2023-01-15T04:45:11.948Z,17.95
2023-01-15T04:46:15.079Z,19.52
2023-01-15T04:47:17.940Z,18.80
2023-01-15T04:48:22.609Z,17.83
2023-01-15T04:49:26.810Z,22.25
2023-01-15T04:50:29.769Z,15.20
2023-01-15T04:51:32.714Z,19.70
2023-01-15T04:52:35.913Z,18.95
2023-01-15T04:53:39.404Z,18.52
2023-01-15T04:54:42.452Z,21.20
2023-01-15T04:55:45.410Z,18.30
2023-01-15T04:56:51.172Z,20.80
2023-01-15T04:57:53.996Z,21.27
2023-01-15T04:59:02.492Z,18.58
2023-01-15T05:00:06.223Z,14.52
2023-01-15T05:01:15.236Z,17.55
2023-01-15T05:02:18.416Z,18.85
2023-01-15T05:03:21.532Z,18.80
2023-01-15T05:04:24.593Z,19.15
2023-01-15T05:05:27.622Z,17.45
2023-01-15T05:06:31.694Z,18.20
2023-01-15T05:07:34.657Z,16.30
2023-01-15T05:08:38.784Z,19.85
2023-01-15T05:09:41.881Z,21.25
2023-01-15T05:10:44.996Z,20.45
2023-01-15T05:11:47.965Z,17.25
2023-01-15T05:12:50.893Z,15.65
2023-01-15T05:13:54.362Z,16.30
2023-01-15T05:14:57.227Z,19.17
2023-01-15T05:16:17.580Z,18.15
2023-01-15T05:17:20.548Z,16.48
2023-01-15T05:18:23.757Z,17.27
2023-01-15T05:19:26.787Z,16.12
2023-01-15T05:20:29.945Z,13.77
2023-01-15T05:21:36.537Z,13.77
2023-01-15T05:22:39.656Z,13.48
2023-01-15T05:23:42.654Z,15.20
2023-01-15T05:24:45.698Z,14.75
2023-01-15T05:25:48.641Z,11.63
2023-01-15T05:26:51.789Z,15.05
2023-01-15T05:27:54.724Z,16.65
2023-01-15T05:29:01.905Z,14.20
2023-01-15T05:30:05.516Z,14.87
2023-01-15T05:31:12.426Z,14.15
2023-01-15T05:32:15.601Z,17.27
2023-01-15T05:33:18.588Z,17.05
2023-01-15T05:34:21.593Z,16.33
2023-01-15T05:35:24.746Z,17.35
2023-01-15T05:36:32.270Z,13.43
2023-01-15T05:37:35.229Z,14.93
2023-01-15T05:38:39.850Z,13.70
2023-01-15T05:39:43.359Z,15.43
2023-01-15T05:40:46.274Z,17.62
2023-01-15T05:41:49.423Z,15.68
2023-01-15T05:42:52.312Z,15.40
2023-01-15T05:43:56.653Z,14.07
2023-01-15T05:44:59.613Z,12.95
2023-01-15T05:46:02.922Z,15.05
2023-01-15T05:47:08.608Z,15.57
2023-01-15T05:48:12.180Z,16.30
2023-01-15T05:49:18.743Z,13.15
2023-01-15T05:50:21.894Z,13.02
2023-01-15T05:51:24.789Z,15.65
2023-01-15T05:52:27.621Z,16.48
2023-01-15T05:53:35.160Z,14.52
2023-01-15T05:54:38.547Z,17.15
2023-01-15T05:55:41.463Z,13.32
2023-01-15T05:56:46.142Z,11.68
2023-01-15T05:57:49.534Z,15.43
2023-01-15T05:58:54.203Z,16.90
2023-01-15T05:59:57.159Z,14.93
2023-01-15T06:01:00.414Z,15.07
2023-01-15T06:02:03.399Z,18.70
2023-01-15T06:03:06.600Z,18.48
2023-01-15T06:04:14.424Z,16.62
2023-01-15T06:05:21.430Z,17.65
2023-01-15T06:06:24.420Z,15.88
2023-01-15T06:07:27.458Z,14.65
2023-01-15T06:08:31.815Z,18.05
2023-01-15T06:09:34.775Z,15.45
2023-01-15T06:10:37.828Z,18.08
2023-01-15T06:11:41.564Z,15.10
2023-01-15T06:12:44.799Z,16.95
2023-01-15T06:13:48.055Z,14.87
2023-01-15T06:14:51.075Z,18.05
2023-01-15T06:15:54.331Z,14.70
2023-01-15T06:16:57.464Z,15.60
2023-01-15T06:18:00.711Z,15.43
2023-01-15T06:19:06.156Z,12.43
2023-01-15T06:20:10.019Z,16.33
2023-01-15T06:21:16.940Z,15.55
2023-01-15T06:22:19.860Z,17.70
2023-01-15T06:23:22.735Z,21.05
2023-01-15T06:24:25.660Z,27.73
2023-01-15T06:25:28.815Z,13.35
2023-01-15T06:26:32.055Z,24.30
2023-01-15T06:27:35.342Z,32.78
2023-01-15T06:28:38.738Z,31.05
2023-01-15T06:29:41.662Z,22.50
2023-01-15T06:30:44.599Z,17.62
2023-01-15T06:31:49.651Z,51.17
2023-01-15T06:32:52.983Z,30.52
2023-01-15T06:33:56.833Z,28.87
2023-01-15T06:34:59.697Z,20.20
2023-01-15T06:36:11.669Z,22.65
2023-01-15T06:37:14.897Z,29.12
2023-01-15T06:38:28.550Z,25.12
2023-01-15T06:39:32.263Z,53.60
2023-01-15T06:40:38.618Z,18.45
2023-01-15T06:42:00.071Z,19.80
2023-01-15T06:43:22.051Z,19.35
2023-01-15T06:44:43.302Z,27.73
2023-01-15T06:46:08.534Z,21.65
2023-01-15T06:47:23.836Z,12.43
2023-01-15T06:48:27.971Z,22.25
2023-01-15T06:49:33.032Z,23.00
2023-01-15T06:50:35.896Z,29.15
2023-01-15T06:51:38.785Z,35.72
2023-01-15T06:52:41.918Z,30.65
2023-01-15T06:53:44.885Z,20.10
2023-01-15T06:54:47.917Z,36.47
2023-01-15T06:55:50.863Z,35.90
2023-01-15T06:56:53.822Z,18.95
2023-01-15T06:57:56.891Z,42.05
2023-01-15T06:59:00.865Z,31.45
2023-01-15T07:00:04.594Z,26.70
2023-01-15T07:01:15.842Z,32.40
2023-01-15T07:02:19.585Z,43.28
2023-01-15T07:03:23.702Z,42.45
2023-01-15T07:04:26.981Z,29.12
2023-01-15T07:05:30.135Z,23.80
2023-01-15T07:06:33.471Z,27.55
2023-01-15T07:07:37.160Z,27.85
2023-01-15T07:08:41.463Z,48.75
2023-01-15T07:09:44.743Z,37.80
2023-01-15T07:10:47.824Z,27.60
2023-01-15T07:11:50.959Z,38.15
2023-01-15T07:12:53.822Z,16.58
2023-01-15T07:14:06.172Z,22.58
2023-01-15T07:15:09.684Z,33.05
2023-01-15T07:16:28.170Z,16.95
2023-01-15T07:17:31.058Z,28.15
2023-01-15T07:18:36.544Z,30.85
2023-01-15T07:19:39.919Z,35.53
2023-01-15T07:20:42.732Z,35.10
2023-01-15T07:21:46.351Z,23.60
2023-01-15T07:22:50.758Z,26.48
2023-01-15T07:23:54.740Z,22.65
2023-01-15T07:24:57.949Z,28.23
2023-01-15T07:26:00.808Z,25.75
2023-01-15T07:27:04.142Z,21.67
2023-01-15T07:28:07.487Z,19.92
2023-01-15T07:29:14.291Z,23.30
2023-01-15T07:30:17.474Z,29.15
2023-01-15T07:31:22.263Z,24.58
2023-01-15T07:32:25.443Z,20.75
2023-01-15T07:33:28.484Z,22.87
2023-01-15T07:34:31.384Z,22.02
2023-01-15T07:35:36.950Z,12.68
2023-01-15T07:36:40.156Z,22.15
2023-01-15T07:37:46.601Z,23.00
2023-01-15T07:38:50.689Z,21.90
2023-01-15T07:39:55.712Z,30.70
2023-01-15T07:41:18.680Z,20.88
2023-01-15T07:42:40.337Z,20.48
2023-01-15T07:44:02.098Z,24.90
2023-01-15T07:45:24.248Z,20.02
2023-01-15T07:46:46.158Z,19.58
2023-01-15T07:49:30.400Z,21.20
2023-01-15T07:50:33.707Z,19.50
2023-01-15T07:51:37.925Z,27.92
2023-01-15T07:52:44.706Z,27.30
2023-01-15T07:53:47.711Z,21.83
2023-01-15T07:54:52.819Z,20.33
2023-01-15T07:55:55.748Z,25.98
2023-01-15T07:56:59.420Z,21.17
2023-01-15T07:58:03.811Z,20.85
2023-01-15T07:59:10.416Z,26.67
2023-01-15T08:00:16.585Z,45.55
2023-01-15T08:01:21.031Z,29.12
2023-01-15T08:02:24.038Z,36.70
2023-01-15T08:03:27.157Z,32.40
2023-01-15T08:04:30.415Z,23.62
2023-01-15T08:05:33.276Z,23.42
2023-01-15T08:06:36.987Z,29.35
2023-01-15T08:07:41.289Z,23.95
2023-01-15T08:08:44.890Z,21.50
2023-01-15T08:09:47.775Z,15.05
2023-01-15T08:11:09.299Z,16.77
2023-01-15T08:12:31.173Z,25.98
2023-01-15T08:13:52.491Z,25.08
2023-01-15T08:15:13.337Z,21.12
2023-01-15T08:16:16.594Z,25.65
2023-01-15T08:17:19.511Z,27.92
2023-01-15T08:18:28.164Z,20.30
2023-01-15T08:19:35.583Z,22.15
2023-01-15T08:20:38.787Z,25.40
2023-01-15T08:21:43.501Z,24.02
2023-01-15T08:22:47.151Z,18.50
2023-01-15T08:23:51.297Z,25.83
2023-01-15T08:24:54.054Z,23.80
2023-01-15T08:26:01.189Z,25.73
2023-01-15T08:27:04.860Z,20.08
2023-01-15T08:28:08.394Z,27.42
2023-01-15T08:29:11.432Z,27.15
2023-01-15T08:30:18.378Z,26.08
2023-01-15T08:31:24.957Z,27.37
2023-01-15T08:32:27.992Z,32.03
2023-01-15T08:33:30.911Z,23.17
2023-01-15T08:34:33.763Z,26.70
2023-01-15T08:35:36.819Z,25.42
2023-01-15T08:36:39.719Z,28.77
2023-01-15T08:37:43.222Z,28.05
2023-01-15T08:38:50.305Z,23.67
2023-01-15T08:39:53.504Z,24.08
2023-01-15T08:40:59.865Z,29.30
2023-01-15T08:42:02.869Z,27.55
2023-01-15T08:43:07.541Z,28.90
2023-01-15T08:44:11.217Z,26.15
2023-01-15T08:45:15.028Z,32.38
2023-01-15T08:46:18.158Z,27.50
2023-01-15T08:47:24.593Z,27.33
2023-01-15T08:48:35.127Z,27.52
2023-01-15T08:49:38.689Z,25.88
2023-01-15T08:50:41.682Z,29.52
2023-01-15T08:51:51.787Z,26.83
2023-01-15T08:52:54.943Z,28.60
2023-01-15T08:53:57.731Z,28.35
2023-01-15T08:55:00.603Z,26.70
2023-01-15T08:56:23.330Z,29.05
2023-01-15T08:57:45.999Z,29.87
2023-01-15T08:59:08.893Z,23.30
2023-01-15T09:00:31.799Z,28.12
2023-01-15T09:01:42.377Z,28.90
2023-01-15T09:02:45.360Z,27.37
2023-01-15T09:03:48.405Z,23.10
2023-01-15T09:04:52.948Z,27.33
2023-01-15T09:05:59.229Z,29.27
2023-01-15T09:07:02.281Z,24.35
2023-01-15T09:08:07.187Z,27.87
2023-01-15T09:09:10.993Z,24.60
2023-01-15T09:10:13.903Z,27.83
2023-01-15T09:11:16.801Z,25.77
2023-01-15T09:12:19.731Z,25.55
2023-01-15T09:13:22.687Z,23.40
2023-01-15T09:14:56.327Z,25.60
2023-01-15T09:15:48.696Z,25.33
2023-01-15T09:16:52.200Z,25.62
2023-01-15T09:17:56.327Z,24.20
2023-01-15T09:18:59.878Z,21.98
2023-01-15T09:20:03.401Z,26.00
2023-01-15T09:21:07.095Z,22.40
2023-01-15T09:22:10.156Z,20.80
2023-01-15T09:23:13.586Z,28.60
2023-01-15T09:24:16.534Z,23.42
2023-01-15T09:25:20.356Z,24.23
2023-01-15T09:26:41.679Z,23.12
2023-01-15T09:27:44.648Z,20.30
2023-01-15T09:28:47.760Z,22.08
2023-01-15T09:29:51.783Z,24.77
2023-01-15T09:30:54.786Z,24.12
2023-01-15T09:31:57.581Z,22.87
2023-01-15T09:33:00.460Z,22.08
2023-01-15T09:34:03.750Z,25.42
2023-01-15T09:35:10.813Z,19.42
2023-01-15T09:36:19.361Z,22.00
2023-01-15T09:37:22.646Z,22.40
2023-01-15T09:38:25.482Z,14.18
2023-01-15T09:39:29.634Z,25.08
2023-01-15T09:40:48.977Z,25.27
2023-01-15T09:42:26.745Z,20.27
2023-01-15T09:43:50.240Z,20.58
2023-01-15T09:45:10.375Z,20.65
2023-01-15T09:46:22.508Z,22.37
2023-01-15T09:47:31.648Z,18.90
2023-01-15T09:48:38.078Z,12.35
2023-01-15T09:49:40.901Z,18.85
2023-01-15T09:51:00.628Z,17.33
2023-01-15T09:52:31.539Z,19.48
2023-01-15T09:53:40.402Z,18.50
2023-01-15T09:54:58.019Z,17.48
2023-01-15T09:56:02.847Z,18.35
2023-01-15T09:57:13.805Z,19.00
2023-01-15T09:58:25.158Z,18.58
2023-01-15T09:59:30.971Z,20.17
2023-01-15T10:00:40.093Z,20.05
2023-01-15T10:01:43.695Z,20.55
2023-01-15T10:03:10.870Z,19.08
2023-01-15T10:04:46.384Z,14.02
2023-01-15T10:06:15.098Z,20.60
2023-01-15T10:07:37.054Z,16.17
2023-01-15T10:08:47.743Z,17.15
2023-01-15T10:10:02.408Z,20.70
2023-01-15T10:11:23.359Z,17.73
2023-01-15T10:12:35.810Z,19.30
2023-01-15T10:13:45.914Z,20.08
2023-01-15T10:15:04.789Z,17.40
2023-01-15T10:16:10.449Z,20.30
2023-01-15T10:17:27.687Z,20.17
2023-01-15T10:18:30.740Z,16.48
2023-01-15T10:19:44.189Z,19.98
2023-01-15T10:21:15.171Z,22.45
2023-01-15T10:22:58.823Z,17.80
2023-01-15T10:24:19.018Z,16.30
2023-01-15T10:25:29.021Z,17.60
2023-01-15T10:26:40.938Z,24.42
2023-01-15T10:27:50.963Z,24.02
2023-01-15T10:29:26.056Z,16.77
2023-01-15T10:30:56.378Z,19.92
2023-01-15T10:32:14.578Z,16.00
2023-01-15T10:33:53.030Z,18.92
2023-01-15T10:35:15.732Z,16.37
2023-01-15T10:36:43.520Z,14.52
2023-01-15T10:38:14.316Z,15.55
2023-01-15T10:39:47.253Z,16.23
2023-01-15T10:41:12.183Z,20.15
2023-01-15T10:42:38.146Z,16.75
2023-01-15T10:43:51.271Z,16.70
2023-01-15T10:45:16.633Z,12.57
2023-01-15T10:46:30.037Z,15.95
2023-01-15T10:47:38.023Z,16.52
2023-01-15T10:48:58.777Z,13.30
2023-01-15T10:50:04.329Z,16.67
2023-01-15T10:51:23.898Z,15.90
2023-01-15T10:52:37.789Z,16.60
2023-01-15T10:53:52.845Z,15.02
2023-01-15T10:55:19.727Z,15.43
2023-01-15T10:56:36.188Z,15.40
2023-01-15T10:58:09.884Z,17.08
2023-01-15T10:59:35.084Z,15.23
2023-01-15T11:00:39.627Z,15.45
2023-01-15T11:01:42.753Z,15.07
2023-01-15T11:02:56.812Z,15.88
2023-01-15T11:04:00.306Z,13.23
2023-01-15T11:05:10.444Z,18.08
2023-01-15T11:06:20.342Z,12.45
2023-01-15T11:07:35.986Z,18.52
2023-01-15T11:09:07.817Z,13.50
2023-01-15T11:10:13.088Z,12.60
2023-01-15T11:11:21.718Z,13.75
2023-01-15T11:12:48.218Z,12.48
2023-01-15T11:14:15.053Z,14.20
2023-01-15T11:15:43.431Z,18.17
2023-01-15T11:17:04.977Z,15.43
2023-01-15T11:18:35.441Z,16.80
2023-01-15T11:19:41.181Z,16.48
2023-01-15T11:20:46.650Z,15.45
2023-01-15T11:21:51.320Z,14.73
2023-01-15T11:22:57.027Z,18.60
2023-01-15T11:24:01.162Z,18.52
2023-01-15T11:25:04.381Z,15.60
2023-01-15T11:26:07.780Z,15.23
2023-01-15T11:27:18.064Z,14.98
2023-01-15T11:28:32.493Z,14.40
2023-01-15T11:29:38.002Z,16.00
2023-01-15T11:30:45.631Z,14.55
2023-01-15T11:31:48.422Z,13.95
2023-01-15T11:32:57.056Z,16.80
2023-01-15T11:34:03.764Z,16.40
2023-01-15T11:35:09.458Z,13.80
2023-01-15T11:36:24.289Z,13.52
2023-01-15T11:37:29.590Z,15.57
2023-01-15T11:38:45.182Z,17.37
2023-01-15T11:39:56.493Z,19.05
2023-01-15T11:41:05.585Z,17.20
2023-01-15T11:42:39.117Z,17.25
2023-01-15T11:44:00.567Z,13.38
2023-01-15T11:45:30.450Z,14.27
2023-01-15T11:46:51.900Z,13.13
2023-01-15T11:48:14.659Z,15.60
2023-01-15T11:49:38.694Z,17.25
2023-01-15T11:51:02.500Z,14.52
2023-01-15T11:52:10.039Z,14.90
2023-01-15T11:53:20.695Z,15.70
2023-01-15T11:54:25.698Z,15.30
2023-01-15T11:55:29.728Z,14.20
2023-01-15T11:56:36.170Z,16.30
2023-01-15T11:57:40.247Z,15.85
2023-01-15T11:58:54.431Z,15.93
2023-01-15T12:00:00.386Z,16.92
2023-01-15T12:01:03.449Z,13.35
2023-01-15T12:02:26.711Z,16.58
2023-01-15T12:03:35.111Z,16.90
2023-01-15T12:04:51.759Z,18.37
2023-01-15T12:06:17.402Z,17.42
2023-01-15T12:07:24.709Z,17.33
2023-01-15T12:08:52.884Z,18.80
2023-01-15T12:10:06.878Z,17.05
2023-01-15T12:11:26.777Z,15.48
2023-01-15T12:13:02.355Z,16.37
2023-01-15T12:14:26.553Z,15.43
2023-01-15T12:16:26.774Z,16.65
2023-01-15T12:18:20.257Z,16.35
2023-01-15T12:20:00.785Z,18.00
2023-01-15T12:21:22.973Z,16.42
2023-01-15T12:22:55.474Z,20.88
2023-01-15T12:24:35.293Z,17.95
2023-01-15T12:26:03.114Z,15.18
2023-01-15T12:27:20.952Z,17.62
2023-01-15T12:28:30.429Z,19.02
2023-01-15T12:30:03.140Z,16.20
2023-01-15T12:31:22.567Z,15.52
2023-01-15T12:32:33.241Z,14.10
2023-01-15T12:33:56.241Z,16.98
2023-01-15T12:35:02.043Z,16.77
2023-01-15T12:36:13.309Z,17.48
2023-01-15T12:38:55.395Z,14.87
2023-01-15T12:40:07.106Z,16.10
2023-01-15T12:41:15.318Z,17.92
2023-01-15T12:42:52.311Z,17.23
2023-01-15T12:44:16.790Z,19.48
2023-01-15T12:45:24.064Z,17.37
2023-01-15T12:46:30.781Z,17.33
2023-01-15T12:47:49.418Z,19.58
2023-01-15T12:49:06.813Z,17.75
2023-01-15T12:50:38.675Z,18.90
2023-01-15T12:51:59.796Z,15.38
2023-01-15T12:53:17.771Z,16.17
2023-01-15T12:54:31.474Z,17.15
2023-01-15T12:55:40.881Z,17.08
2023-01-15T12:57:11.831Z,20.88
2023-01-15T12:58:33.459Z,18.27
2023-01-15T12:59:50.792Z,17.83
2023-01-15T13:01:05.312Z,18.05
2023-01-15T13:02:37.816Z,16.02
2023-01-15T13:05:12.490Z,13.95
2023-01-15T13:06:18.279Z,15.82
2023-01-15T13:07:49.754Z,15.88
2023-01-15T13:09:11.412Z,16.33
2023-01-15T13:10:24.528Z,15.50
2023-01-15T13:11:27.781Z,19.08
2023-01-15T13:12:31.323Z,17.23
2023-01-15T13:13:39.347Z,15.50
2023-01-15T13:14:46.357Z,14.80
2023-01-15T13:16:15.848Z,16.05
2023-01-15T13:17:32.329Z,15.98
2023-01-15T13:19:01.494Z,15.38
2023-01-15T13:20:21.439Z,14.50
2023-01-15T13:21:29.688Z,15.63
2023-01-15T13:22:40.677Z,16.10
2023-01-15T13:23:54.870Z,13.45
2023-01-15T13:25:33.826Z,16.48
2023-01-15T13:26:58.199Z,12.18
2023-01-15T13:28:10.311Z,13.70
2023-01-15T13:29:40.296Z,14.52
2023-01-15T13:30:53.488Z,15.15
2023-01-15T13:32:19.064Z,16.42
2023-01-15T13:33:25.367Z,14.35
2023-01-15T13:34:35.152Z,11.30
2023-01-15T13:35:48.545Z,14.55
2023-01-15T13:36:54.306Z,17.10
2023-01-15T13:38:01.689Z,15.20
2023-01-15T13:39:07.565Z,14.95
2023-01-15T13:40:38.127Z,14.20
2023-01-15T13:42:02.661Z,18.05
2023-01-15T13:43:08.114Z,14.77
2023-01-15T13:44:31.181Z,18.87
2023-01-15T13:45:48.403Z,14.57
2023-01-15T13:47:03.716Z,12.95
2023-01-15T13:48:09.057Z,15.35
2023-01-15T13:49:22.275Z,15.07
2023-01-15T13:50:35.530Z,13.07
2023-01-15T13:51:43.534Z,14.05
2023-01-15T13:52:46.978Z,16.90
2023-01-15T13:53:51.124Z,16.85
2023-01-15T13:54:58.762Z,14.65
2023-01-15T13:56:12.794Z,16.73
2023-01-15T13:57:24.391Z,17.15
2023-01-15T13:58:29.898Z,16.83
2023-01-15T13:59:45.107Z,16.92
2023-01-15T14:00:48.149Z,15.25
2023-01-15T14:01:51.435Z,12.40
2023-01-15T14:02:57.045Z,13.07
2023-01-15T14:04:16.113Z,13.25
2023-01-15T14:05:30.596Z,17.23
2023-01-15T14:06:44.319Z,15.52
2023-01-15T14:07:50.312Z,14.70
2023-01-15T14:08:55.739Z,15.88
2023-01-15T14:10:18.677Z,15.48
2023-01-15T14:11:44.135Z,15.20
2023-01-15T14:13:02.123Z,16.50
2023-01-15T14:14:12.453Z,13.10
2023-01-15T14:15:44.709Z,15.45
2023-01-15T14:16:59.147Z,17.58
2023-01-15T14:18:30.237Z,14.73
2023-01-15T14:19:51.877Z,19.10
2023-01-15T14:21:01.277Z,14.87
2023-01-15T14:22:39.357Z,16.35
2023-01-15T14:24:21.969Z,15.32
2023-01-15T14:25:34.790Z,17.20
2023-01-15T14:27:04.299Z,16.60
2023-01-15T14:28:41.203Z,14.80
2023-01-15T14:30:09.610Z,15.77
2023-01-15T14:31:40.335Z,13.20
2023-01-15T14:33:25.175Z,15.07
2023-01-15T14:34:34.745Z,18.75
2023-01-15T14:35:44.626Z,14.52
2023-01-15T14:37:08.485Z,10.40
2023-01-15T14:38:23.485Z,16.08
2023-01-15T14:39:49.177Z,15.23
2023-01-15T14:41:02.112Z,20.02
2023-01-15T14:42:43.234Z,16.70
2023-01-15T14:43:50.021Z,16.42
2023-01-15T14:45:08.777Z,19.40
2023-01-15T14:46:15.022Z,17.45
2023-01-15T14:47:33.516Z,14.30
2023-01-15T14:48:40.224Z,16.52
2023-01-15T14:49:49.893Z,19.00
2023-01-15T14:50:54.346Z,18.02
2023-01-15T14:51:58.809Z,16.62
2023-01-15T14:53:07.864Z,17.35
2023-01-15T14:54:14.615Z,18.92
2023-01-15T14:55:19.803Z,18.45
2023-01-15T14:56:35.233Z,18.75
2023-01-15T14:57:39.844Z,16.95
2023-01-15T14:59:14.202Z,16.12
2023-01-15T15:00:20.835Z,18.02
2023-01-15T15:01:42.126Z,18.00
2023-01-15T15:02:49.430Z,16.50
2023-01-15T15:04:29.992Z,18.37
2023-01-15T15:05:35.398Z,18.77
2023-01-15T15:06:47.600Z,16.42
2023-01-15T15:07:55.742Z,20.15
2023-01-15T15:09:05.086Z,20.62
2023-01-15T15:10:14.503Z,18.35